sensor_id;sensor_type;location;lat;lon;timestamp;temperature;humidity
69418;DHT22;56610;48.872;2.400;2023-11-22T00:01:06;13.50;99.90
69418;DHT22;56610;48.872;2.400;2023-11-22T00:03:32;13.60;99.90
69418;DHT22;56610;48.872;2.400;2023-11-22T00:05:58;13.50;99.90
69418;DHT22;56610;48.872;2.400;2023-11-22T00:08:23;13.60;99.90
69418;DHT22;56610;48.872;2.400;2023-11-22T00:10:49;13.60;99.90
69418;DHT22;56610;48.872;2.400;2023-11-22T00:13:14;13.50;99.90
69418;DHT22;56610;48.872;2.400;2023-11-22T00:15:40;13.40;99.90
69418;DHT22;56610;48.872;2.400;2023-11-22T00:18:06;13.40;99.90
69418;DHT22;56610;48.872;2.400;2023-11-22T00:20:31;13.50;99.90
69418;DHT22;56610;48.872;2.400;2023-11-22T00:22:59;13.40;99.90
69418;DHT22;56610;48.872;2.400;2023-11-22T00:25:24;13.40;99.90
69418;DHT22;56610;48.872;2.400;2023-11-22T00:27:50;13.50;99.90
69418;DHT22;56610;48.872;2.400;2023-11-22T00:30:15;13.50;99.90
69418;DHT22;56610;48.872;2.400;2023-11-22T00:32:41;13.60;99.90
69418;DHT22;56610;48.872;2.400;2023-11-22T00:35:06;13.50;99.90
69418;DHT22;56610;48.872;2.400;2023-11-22T00:37:33;13.50;99.90
69418;DHT22;56610;48.872;2.400;2023-11-22T00:40:00;13.50;99.90
69418;DHT22;56610;48.872;2.400;2023-11-22T00:42:26;13.50;99.90
69418;DHT22;56610;48.872;2.400;2023-11-22T00:44:52;13.40;99.90
69418;DHT22;56610;48.872;2.400;2023-11-22T00:47:18;13.40;99.90
69418;DHT22;56610;48.872;2.400;2023-11-22T00:49:44;13.40;99.90
69418;DHT22;56610;48.872;2.400;2023-11-22T00:52:09;13.40;99.90
69418;DHT22;56610;48.872;2.400;2023-11-22T00:54:35;13.40;99.90
69418;DHT22;56610;48.872;2.400;2023-11-22T00:57:00;13.50;99.90
69418;DHT22;56610;48.872;2.400;2023-11-22T00:59:26;13.50;99.90
69418;DHT22;56610;48.872;2.400;2023-11-22T01:01:52;13.50;99.90
69418;DHT22;56610;48.872;2.400;2023-11-22T01:04:17;13.40;99.90
69418;DHT22;56610;48.872;2.400;2023-11-22T01:06:43;13.50;99.90
69418;DHT22;56610;48.872;2.400;2023-11-22T01:09:08;13.40;99.90
69418;DHT22;56610;48.872;2.400;2023-11-22T01:11:39;13.50;99.90
69418;DHT22;56610;48.872;2.400;2023-11-22T01:14:05;13.50;99.90
69418;DHT22;56610;48.872;2.400;2023-11-22T01:16:30;13.40;99.90
69418;DHT22;56610;48.872;2.400;2023-11-22T01:18:56;13.40;99.90
69418;DHT22;56610;48.872;2.400;2023-11-22T01:21:21;13.50;99.90
69418;DHT22;56610;48.872;2.400;2023-11-22T01:23:47;13.50;99.90
69418;DHT22;56610;48.872;2.400;2023-11-22T01:26:12;13.60;99.90
69418;DHT22;56610;48.872;2.400;2023-11-22T01:28:37;13.50;99.90
69418;DHT22;56610;48.872;2.400;2023-11-22T01:31:05;13.40;99.90
69418;DHT22;56610;48.872;2.400;2023-11-22T01:33:31;13.40;99.90
69418;DHT22;56610;48.872;2.400;2023-11-22T01:35:57;13.50;99.90
69418;DHT22;56610;48.872;2.400;2023-11-22T01:38:23;13.40;99.90
69418;DHT22;56610;48.872;2.400;2023-11-22T01:40:51;13.30;99.90
69418;DHT22;56610;48.872;2.400;2023-11-22T01:43:17;13.30;99.90
69418;DHT22;56610;48.872;2.400;2023-11-22T01:45:43;13.30;99.90
69418;DHT22;56610;48.872;2.400;2023-11-22T01:48:10;13.20;99.90
69418;DHT22;56610;48.872;2.400;2023-11-22T01:50:39;13.20;99.90
69418;DHT22;56610;48.872;2.400;2023-11-22T01:53:05;13.20;99.90
69418;DHT22;56610;48.872;2.400;2023-11-22T01:55:31;13.30;99.90
69418;DHT22;56610;48.872;2.400;2023-11-22T01:57:56;13.20;99.90
69418;DHT22;56610;48.872;2.400;2023-11-22T02:03:25;13.20;99.90
69418;DHT22;56610;48.872;2.400;2023-11-22T02:05:51;13.20;99.90
69418;DHT22;56610;48.872;2.400;2023-11-22T02:08:18;13.20;99.90
69418;DHT22;56610;48.872;2.400;2023-11-22T02:10:43;13.10;99.90
69418;DHT22;56610;48.872;2.400;2023-11-22T02:13:10;13.10;99.90
69418;DHT22;56610;48.872;2.400;2023-11-22T02:15:36;13.00;99.90
69418;DHT22;56610;48.872;2.400;2023-11-22T02:18:02;13.10;99.90
69418;DHT22;56610;48.872;2.400;2023-11-22T02:20:28;13.10;99.90
69418;DHT22;56610;48.872;2.400;2023-11-22T02:22:54;13.20;99.90
69418;DHT22;56610;48.872;2.400;2023-11-22T02:25:19;13.20;99.90
69418;DHT22;56610;48.872;2.400;2023-11-22T02:27:45;13.20;99.90
69418;DHT22;56610;48.872;2.400;2023-11-22T02:30:11;13.20;99.90
69418;DHT22;56610;48.872;2.400;2023-11-22T02:32:36;13.20;99.90
69418;DHT22;56610;48.872;2.400;2023-11-22T02:35:02;13.10;99.90
69418;DHT22;56610;48.872;2.400;2023-11-22T02:37:29;13.10;99.90
69418;DHT22;56610;48.872;2.400;2023-11-22T02:42:39;13.00;99.90
69418;DHT22;56610;48.872;2.400;2023-11-22T02:45:05;13.10;99.90
69418;DHT22;56610;48.872;2.400;2023-11-22T02:47:31;13.10;99.90
69418;DHT22;56610;48.872;2.400;2023-11-22T02:49:56;13.00;99.90
69418;DHT22;56610;48.872;2.400;2023-11-22T02:52:22;12.90;99.90
69418;DHT22;56610;48.872;2.400;2023-11-22T02:54:49;12.80;99.90
69418;DHT22;56610;48.872;2.400;2023-11-22T02:57:14;12.90;99.90
69418;DHT22;56610;48.872;2.400;2023-11-22T02:59:43;12.90;99.90
69418;DHT22;56610;48.872;2.400;2023-11-22T03:02:09;12.90;99.90
69418;DHT22;56610;48.872;2.400;2023-11-22T03:04:35;12.90;99.90
69418;DHT22;56610;48.872;2.400;2023-11-22T03:07:00;12.90;99.90
69418;DHT22;56610;48.872;2.400;2023-11-22T03:09:26;12.70;99.90
69418;DHT22;56610;48.872;2.400;2023-11-22T03:11:54;12.70;99.90
69418;DHT22;56610;48.872;2.400;2023-11-22T03:14:19;12.60;99.90
69418;DHT22;56610;48.872;2.400;2023-11-22T03:16:45;12.60;99.90
69418;DHT22;56610;48.872;2.400;2023-11-22T03:19:11;12.50;99.90
69418;DHT22;56610;48.872;2.400;2023-11-22T03:21:38;12.60;99.90
69418;DHT22;56610;48.872;2.400;2023-11-22T03:24:04;12.60;99.90
69418;DHT22;56610;48.872;2.400;2023-11-22T03:26:30;12.50;99.90
69418;DHT22;56610;48.872;2.400;2023-11-22T03:28:55;12.50;99.90
69418;DHT22;56610;48.872;2.400;2023-11-22T03:31:20;12.60;99.90
69418;DHT22;56610;48.872;2.400;2023-11-22T03:33:46;12.50;99.90
69418;DHT22;56610;48.872;2.400;2023-11-22T03:36:12;12.40;99.90
69418;DHT22;56610;48.872;2.400;2023-11-22T03:38:38;12.40;99.90
69418;DHT22;56610;48.872;2.400;2023-11-22T03:41:05;12.30;99.90
69418;DHT22;56610;48.872;2.400;2023-11-22T03:43:30;12.20;99.90
69418;DHT22;56610;48.872;2.400;2023-11-22T03:45:56;12.10;99.90
69418;DHT22;56610;48.872;2.400;2023-11-22T03:48:21;12.10;99.90
69418;DHT22;56610;48.872;2.400;2023-11-22T03:50:51;12.10;99.90
69418;DHT22;56610;48.872;2.400;2023-11-22T03:53:17;12.00;99.90
69418;DHT22;56610;48.872;2.400;2023-11-22T03:55:42;12.00;99.90
69418;DHT22;56610;48.872;2.400;2023-11-22T03:58:08;12.00;99.90
69418;DHT22;56610;48.872;2.400;2023-11-22T04:00:33;12.00;99.90
69418;DHT22;56610;48.872;2.400;2023-11-22T04:02:59;11.90;99.90
69418;DHT22;56610;48.872;2.400;2023-11-22T04:05:27;12.00;99.90
69418;DHT22;56610;48.872;2.400;2023-11-22T04:07:52;12.00;99.90
69418;DHT22;56610;48.872;2.400;2023-11-22T04:10:18;11.90;99.90
69418;DHT22;56610;48.872;2.400;2023-11-22T04:12:44;11.80;99.90
69418;DHT22;56610;48.872;2.400;2023-11-22T04:15:10;11.80;99.90
69418;DHT22;56610;48.872;2.400;2023-11-22T04:17:35;11.70;99.90
69418;DHT22;56610;48.872;2.400;2023-11-22T04:20:04;11.80;99.90
69418;DHT22;56610;48.872;2.400;2023-11-22T04:22:34;11.60;99.90
69418;DHT22;56610;48.872;2.400;2023-11-22T04:24:59;11.50;99.90
69418;DHT22;56610;48.872;2.400;2023-11-22T04:27:26;11.40;99.90
69418;DHT22;56610;48.872;2.400;2023-11-22T04:29:51;11.40;99.90
69418;DHT22;56610;48.872;2.400;2023-11-22T04:32:17;11.40;99.90
69418;DHT22;56610;48.872;2.400;2023-11-22T04:34:42;11.30;99.90
69418;DHT22;56610;48.872;2.400;2023-11-22T04:37:08;11.30;99.90
69418;DHT22;56610;48.872;2.400;2023-11-22T04:39:33;11.30;99.90
69418;DHT22;56610;48.872;2.400;2023-11-22T04:41:59;11.40;99.90
69418;DHT22;56610;48.872;2.400;2023-11-22T04:44:25;11.30;99.90
69418;DHT22;56610;48.872;2.400;2023-11-22T04:46:51;11.30;99.90
69418;DHT22;56610;48.872;2.400;2023-11-22T04:49:17;11.20;99.90
69418;DHT22;56610;48.872;2.400;2023-11-22T04:51:42;11.20;99.90
69418;DHT22;56610;48.872;2.400;2023-11-22T04:54:09;11.30;99.90
69418;DHT22;56610;48.872;2.400;2023-11-22T04:56:34;11.20;99.90
69418;DHT22;56610;48.872;2.400;2023-11-22T04:59:00;11.20;99.90
69418;DHT22;56610;48.872;2.400;2023-11-22T05:01:31;11.10;99.90
69418;DHT22;56610;48.872;2.400;2023-11-22T05:03:56;11.20;99.90
69418;DHT22;56610;48.872;2.400;2023-11-22T05:06:22;11.20;99.90
69418;DHT22;56610;48.872;2.400;2023-11-22T05:08:47;11.30;99.90
69418;DHT22;56610;48.872;2.400;2023-11-22T05:11:13;11.20;99.90
69418;DHT22;56610;48.872;2.400;2023-11-22T05:13:40;11.20;99.90
69418;DHT22;56610;48.872;2.400;2023-11-22T05:16:08;11.20;99.90
69418;DHT22;56610;48.872;2.400;2023-11-22T05:18:34;11.10;99.90
69418;DHT22;56610;48.872;2.400;2023-11-22T05:20:59;11.10;99.90
69418;DHT22;56610;48.872;2.400;2023-11-22T05:23:25;11.10;99.90
69418;DHT22;56610;48.872;2.400;2023-11-22T05:25:50;11.10;99.90
69418;DHT22;56610;48.872;2.400;2023-11-22T05:28:17;11.00;99.90
69418;DHT22;56610;48.872;2.400;2023-11-22T05:30:42;10.90;99.90
69418;DHT22;56610;48.872;2.400;2023-11-22T05:33:08;10.80;99.90
69418;DHT22;56610;48.872;2.400;2023-11-22T05:35:34;10.80;99.90
69418;DHT22;56610;48.872;2.400;2023-11-22T05:37:59;10.70;99.90
69418;DHT22;56610;48.872;2.400;2023-11-22T05:40:25;10.70;99.90
69418;DHT22;56610;48.872;2.400;2023-11-22T05:42:50;10.70;99.90
69418;DHT22;56610;48.872;2.400;2023-11-22T05:45:16;10.80;99.90
69418;DHT22;56610;48.872;2.400;2023-11-22T05:47:41;10.70;99.90
69418;DHT22;56610;48.872;2.400;2023-11-22T05:50:08;10.70;99.90
69418;DHT22;56610;48.872;2.400;2023-11-22T05:52:33;10.70;99.90
69418;DHT22;56610;48.872;2.400;2023-11-22T05:54:59;10.60;99.90
69418;DHT22;56610;48.872;2.400;2023-11-22T05:57:28;10.50;99.90
69418;DHT22;56610;48.872;2.400;2023-11-22T05:59:54;10.70;99.90
69418;DHT22;56610;48.872;2.400;2023-11-22T06:02:19;10.70;99.90
69418;DHT22;56610;48.872;2.400;2023-11-22T06:04:45;10.80;99.90
69418;DHT22;56610;48.872;2.400;2023-11-22T06:07:10;10.70;99.90
69418;DHT22;56610;48.872;2.400;2023-11-22T06:09:36;10.80;99.90
69418;DHT22;56610;48.872;2.400;2023-11-22T06:12:01;10.80;99.90
69418;DHT22;56610;48.872;2.400;2023-11-22T06:14:27;10.70;99.90
69418;DHT22;56610;48.872;2.400;2023-11-22T06:16:52;10.60;99.90
69418;DHT22;56610;48.872;2.400;2023-11-22T06:19:17;10.70;99.90
69418;DHT22;56610;48.872;2.400;2023-11-22T06:21:43;10.80;99.90
69418;DHT22;56610;48.872;2.400;2023-11-22T06:24:08;10.80;99.90
69418;DHT22;56610;48.872;2.400;2023-11-22T06:26:36;10.80;99.90
69418;DHT22;56610;48.872;2.400;2023-11-22T06:29:05;10.80;99.90
69418;DHT22;56610;48.872;2.400;2023-11-22T06:31:30;10.80;99.90
69418;DHT22;56610;48.872;2.400;2023-11-22T06:33:56;10.70;99.90
69418;DHT22;56610;48.872;2.400;2023-11-22T06:36:21;10.70;99.90
69418;DHT22;56610;48.872;2.400;2023-11-22T06:38:47;10.50;99.90
69418;DHT22;56610;48.872;2.400;2023-11-22T06:41:12;10.60;99.90
69418;DHT22;56610;48.872;2.400;2023-11-22T06:43:38;10.60;99.90
69418;DHT22;56610;48.872;2.400;2023-11-22T06:46:03;10.80;99.90
69418;DHT22;56610;48.872;2.400;2023-11-22T06:48:31;10.80;99.90
69418;DHT22;56610;48.872;2.400;2023-11-22T06:50:57;10.90;99.90
69418;DHT22;56610;48.872;2.400;2023-11-22T06:53:23;10.70;99.90
69418;DHT22;56610;48.872;2.400;2023-11-22T06:55:51;10.60;99.90
69418;DHT22;56610;48.872;2.400;2023-11-22T06:58:16;10.60;99.90
69418;DHT22;56610;48.872;2.400;2023-11-22T07:00:43;10.60;99.90
69418;DHT22;56610;48.872;2.400;2023-11-22T07:03:09;10.60;99.90
69418;DHT22;56610;48.872;2.400;2023-11-22T07:05:36;10.40;99.90
69418;DHT22;56610;48.872;2.400;2023-11-22T07:08:02;10.30;99.90
69418;DHT22;56610;48.872;2.400;2023-11-22T07:10:28;10.40;99.90
69418;DHT22;56610;48.872;2.400;2023-11-22T07:12:53;10.40;99.90
69418;DHT22;56610;48.872;2.400;2023-11-22T07:15:19;10.60;99.90
69418;DHT22;56610;48.872;2.400;2023-11-22T07:17:45;10.50;99.90
69418;DHT22;56610;48.872;2.400;2023-11-22T07:20:10;10.60;99.90
69418;DHT22;56610;48.872;2.400;2023-11-22T07:22:41;10.50;99.90
69418;DHT22;56610;48.872;2.400;2023-11-22T07:25:08;10.60;99.90
69418;DHT22;56610;48.872;2.400;2023-11-22T07:27:46;10.50;99.90
69418;DHT22;56610;48.872;2.400;2023-11-22T07:30:15;10.60;99.90
69418;DHT22;56610;48.872;2.400;2023-11-22T07:32:41;10.50;99.90
69418;DHT22;56610;48.872;2.400;2023-11-22T07:35:07;10.50;99.90
69418;DHT22;56610;48.872;2.400;2023-11-22T07:37:36;10.50;99.90
69418;DHT22;56610;48.872;2.400;2023-11-22T07:40:05;10.30;99.90
69418;DHT22;56610;48.872;2.400;2023-11-22T07:42:33;10.30;99.90
69418;DHT22;56610;48.872;2.400;2023-11-22T07:44:58;10.40;99.90
69418;DHT22;56610;48.872;2.400;2023-11-22T07:47:24;10.50;99.90
69418;DHT22;56610;48.872;2.400;2023-11-22T07:49:50;10.40;99.90
69418;DHT22;56610;48.872;2.400;2023-11-22T07:52:15;10.50;99.90
69418;DHT22;56610;48.872;2.400;2023-11-22T07:54:41;10.50;99.90
69418;DHT22;56610;48.872;2.400;2023-11-22T07:57:06;10.60;99.90
69418;DHT22;56610;48.872;2.400;2023-11-22T07:59:33;10.40;99.90
69418;DHT22;56610;48.872;2.400;2023-11-22T08:01:58;10.50;99.90
69418;DHT22;56610;48.872;2.400;2023-11-22T08:04:26;10.40;99.90
69418;DHT22;56610;48.872;2.400;2023-11-22T08:06:53;10.50;99.90
69418;DHT22;56610;48.872;2.400;2023-11-22T08:09:22;10.50;99.90
69418;DHT22;56610;48.872;2.400;2023-11-22T08:11:48;10.50;99.90
69418;DHT22;56610;48.872;2.400;2023-11-22T08:14:14;10.40;99.90
69418;DHT22;56610;48.872;2.400;2023-11-22T08:16:40;10.50;99.90
69418;DHT22;56610;48.872;2.400;2023-11-22T08:19:08;10.40;99.90
69418;DHT22;56610;48.872;2.400;2023-11-22T08:21:34;10.40;99.90
69418;DHT22;56610;48.872;2.400;2023-11-22T08:24:00;10.40;99.90
69418;DHT22;56610;48.872;2.400;2023-11-22T08:26:26;10.40;99.90
69418;DHT22;56610;48.872;2.400;2023-11-22T08:28:51;10.50;99.90
69418;DHT22;56610;48.872;2.400;2023-11-22T08:31:17;10.30;99.90
69418;DHT22;56610;48.872;2.400;2023-11-22T08:33:42;10.40;99.90
69418;DHT22;56610;48.872;2.400;2023-11-22T08:36:09;10.40;99.90
69418;DHT22;56610;48.872;2.400;2023-11-22T08:38:35;10.50;99.90
69418;DHT22;56610;48.872;2.400;2023-11-22T08:41:03;10.40;99.90
69418;DHT22;56610;48.872;2.400;2023-11-22T08:43:31;10.50;99.90
69418;DHT22;56610;48.872;2.400;2023-11-22T08:45:57;10.40;99.90
69418;DHT22;56610;48.872;2.400;2023-11-22T08:48:23;10.40;99.90
69418;DHT22;56610;48.872;2.400;2023-11-22T08:50:49;10.50;99.90
69418;DHT22;56610;48.872;2.400;2023-11-22T08:53:14;10.50;99.90
69418;DHT22;56610;48.872;2.400;2023-11-22T08:55:40;10.50;99.90
69418;DHT22;56610;48.872;2.400;2023-11-22T08:58:07;10.50;99.90
69418;DHT22;56610;48.872;2.400;2023-11-22T09:00:33;10.40;99.90
69418;DHT22;56610;48.872;2.400;2023-11-22T09:02:59;10.40;99.90
69418;DHT22;56610;48.872;2.400;2023-11-22T09:05:24;10.40;99.90
69418;DHT22;56610;48.872;2.400;2023-11-22T09:07:50;10.40;99.90
69418;DHT22;56610;48.872;2.400;2023-11-22T09:10:16;10.40;99.90
69418;DHT22;56610;48.872;2.400;2023-11-22T09:12:43;10.30;99.90
69418;DHT22;56610;48.872;2.400;2023-11-22T09:15:09;10.40;99.90
69418;DHT22;56610;48.872;2.400;2023-11-22T09:17:36;10.40;99.90
69418;DHT22;56610;48.872;2.400;2023-11-22T09:20:04;10.50;99.90
69418;DHT22;56610;48.872;2.400;2023-11-22T09:22:32;10.50;99.90
69418;DHT22;56610;48.872;2.400;2023-11-22T09:24:57;10.60;99.90
69418;DHT22;56610;48.872;2.400;2023-11-22T09:27:23;10.70;99.90
69418;DHT22;56610;48.872;2.400;2023-11-22T09:29:48;10.50;99.90
69418;DHT22;56610;48.872;2.400;2023-11-22T09:32:15;10.50;99.90
69418;DHT22;56610;48.872;2.400;2023-11-22T09:34:40;10.50;99.90
69418;DHT22;56610;48.872;2.400;2023-11-22T09:37:06;10.60;99.90
69418;DHT22;56610;48.872;2.400;2023-11-22T09:39:33;10.60;99.90
69418;DHT22;56610;48.872;2.400;2023-11-22T09:42:00;10.60;99.90
69418;DHT22;56610;48.872;2.400;2023-11-22T09:44:26;10.70;99.90
69418;DHT22;56610;48.872;2.400;2023-11-22T09:46:51;10.60;99.90
69418;DHT22;56610;48.872;2.400;2023-11-22T09:49:19;10.60;99.90
69418;DHT22;56610;48.872;2.400;2023-11-22T09:51:47;10.60;99.90
69418;DHT22;56610;48.872;2.400;2023-11-22T09:54:13;10.60;99.90
69418;DHT22;56610;48.872;2.400;2023-11-22T09:56:40;10.60;99.90
69418;DHT22;56610;48.872;2.400;2023-11-22T09:59:07;10.50;99.90
69418;DHT22;56610;48.872;2.400;2023-11-22T10:01:32;10.60;99.90
69418;DHT22;56610;48.872;2.400;2023-11-22T10:04:01;10.50;99.90
69418;DHT22;56610;48.872;2.400;2023-11-22T10:06:27;10.60;99.90
69418;DHT22;56610;48.872;2.400;2023-11-22T10:08:58;10.60;99.90
69418;DHT22;56610;48.872;2.400;2023-11-22T10:11:25;10.80;99.90
69418;DHT22;56610;48.872;2.400;2023-11-22T10:13:50;10.80;99.90
69418;DHT22;56610;48.872;2.400;2023-11-22T10:16:16;10.90;99.90
69418;DHT22;56610;48.872;2.400;2023-11-22T10:18:44;11.10;99.90
69418;DHT22;56610;48.872;2.400;2023-11-22T10:21:22;11.20;99.90
69418;DHT22;56610;48.872;2.400;2023-11-22T10:23:49;11.30;99.90
69418;DHT22;56610;48.872;2.400;2023-11-22T10:26:17;11.60;99.90
69418;DHT22;56610;48.872;2.400;2023-11-22T10:28:42;11.80;99.90
69418;DHT22;56610;48.872;2.400;2023-11-22T10:31:11;11.90;99.90
69418;DHT22;56610;48.872;2.400;2023-11-22T10:33:40;12.00;99.90
69418;DHT22;56610;48.872;2.400;2023-11-22T10:36:09;12.30;99.90
69418;DHT22;56610;48.872;2.400;2023-11-22T10:38:34;12.60;99.90
69418;DHT22;56610;48.872;2.400;2023-11-22T10:41:03;12.80;99.90
69418;DHT22;56610;48.872;2.400;2023-11-22T10:43:30;13.00;99.90
69418;DHT22;56610;48.872;2.400;2023-11-22T10:45:57;13.50;99.90
69418;DHT22;56610;48.872;2.400;2023-11-22T10:48:23;13.80;99.90
69418;DHT22;56610;48.872;2.400;2023-11-22T10:50:50;14.20;99.90
69418;DHT22;56610;48.872;2.400;2023-11-22T10:53:21;14.20;99.90
69418;DHT22;56610;48.872;2.400;2023-11-22T10:55:51;14.50;99.90
69418;DHT22;56610;48.872;2.400;2023-11-22T10:58:23;14.60;99.90
69418;DHT22;56610;48.872;2.400;2023-11-22T11:00:50;15.00;99.90
69418;DHT22;56610;48.872;2.400;2023-11-22T11:03:18;15.00;99.90
69418;DHT22;56610;48.872;2.400;2023-11-22T11:05:49;15.20;99.90
69418;DHT22;56610;48.872;2.400;2023-11-22T11:08:16;15.30;99.90
69418;DHT22;56610;48.872;2.400;2023-11-22T11:10:43;15.70;99.90
69418;DHT22;56610;48.872;2.400;2023-11-22T11:13:10;15.80;99.90
69418;DHT22;56610;48.872;2.400;2023-11-22T11:15:39;16.10;99.90
69418;DHT22;56610;48.872;2.400;2023-11-22T11:18:06;16.10;99.90
69418;DHT22;56610;48.872;2.400;2023-11-22T11:20:32;16.40;99.90
69418;DHT22;56610;48.872;2.400;2023-11-22T11:22:57;16.20;99.90
69418;DHT22;56610;48.872;2.400;2023-11-22T11:25:23;16.40;99.90
69418;DHT22;56610;48.872;2.400;2023-11-22T11:27:56;16.30;99.90
69418;DHT22;56610;48.872;2.400;2023-11-22T11:32:57;16.10;99.90
69418;DHT22;56610;48.872;2.400;2023-11-22T11:35:39;16.30;99.90
69418;DHT22;56610;48.872;2.400;2023-11-22T11:38:06;16.20;99.90
69418;DHT22;56610;48.872;2.400;2023-11-22T11:40:34;16.20;99.90
69418;DHT22;56610;48.872;2.400;2023-11-22T11:43:00;16.20;99.90
69418;DHT22;56610;48.872;2.400;2023-11-22T11:45:26;16.30;99.90
69418;DHT22;56610;48.872;2.400;2023-11-22T11:47:52;16.10;99.90
69418;DHT22;56610;48.872;2.400;2023-11-22T11:50:17;16.10;99.90
69418;DHT22;56610;48.872;2.400;2023-11-22T11:52:43;15.80;99.90
69418;DHT22;56610;48.872;2.400;2023-11-22T11:55:08;15.70;99.90
69418;DHT22;56610;48.872;2.400;2023-11-22T11:57:34;15.80;99.90
69418;DHT22;56610;48.872;2.400;2023-11-22T12:00:01;15.90;99.90
69418;DHT22;56610;48.872;2.400;2023-11-22T12:02:29;15.80;99.90
69418;DHT22;56610;48.872;2.400;2023-11-22T12:04:54;15.80;99.90
69418;DHT22;56610;48.872;2.400;2023-11-22T12:07:20;15.80;99.90
69418;DHT22;56610;48.872;2.400;2023-11-22T12:09:45;15.90;99.90
69418;DHT22;56610;48.872;2.400;2023-11-22T12:12:12;15.60;99.90
69418;DHT22;56610;48.872;2.400;2023-11-22T12:14:38;15.70;99.90
69418;DHT22;56610;48.872;2.400;2023-11-22T12:17:04;15.70;99.90
69418;DHT22;56610;48.872;2.400;2023-11-22T12:19:31;15.80;99.90
69418;DHT22;56610;48.872;2.400;2023-11-22T12:21:57;15.80;99.90
69418;DHT22;56610;48.872;2.400;2023-11-22T12:24:23;15.90;99.90
69418;DHT22;56610;48.872;2.400;2023-11-22T12:26:50;16.00;99.90
69418;DHT22;56610;48.872;2.400;2023-11-22T12:29:18;16.00;99.90
69418;DHT22;56610;48.872;2.400;2023-11-22T12:31:44;16.10;99.90
69418;DHT22;56610;48.872;2.400;2023-11-22T12:34:12;16.20;99.90
69418;DHT22;56610;48.872;2.400;2023-11-22T12:36:37;15.90;99.90
69418;DHT22;56610;48.872;2.400;2023-11-22T12:39:06;15.70;99.90
69418;DHT22;56610;48.872;2.400;2023-11-22T12:41:32;15.50;99.90
69418;DHT22;56610;48.872;2.400;2023-11-22T12:44:05;15.50;99.90
69418;DHT22;56610;48.872;2.400;2023-11-22T12:46:44;15.50;99.90
69418;DHT22;56610;48.872;2.400;2023-11-22T12:49:09;15.60;99.90
69418;DHT22;56610;48.872;2.400;2023-11-22T12:51:36;15.70;99.90
69418;DHT22;56610;48.872;2.400;2023-11-22T12:54:01;15.80;99.90
69418;DHT22;56610;48.872;2.400;2023-11-22T12:56:27;15.60;99.90
69418;DHT22;56610;48.872;2.400;2023-11-22T12:58:53;15.60;99.90
69418;DHT22;56610;48.872;2.400;2023-11-22T13:01:19;15.60;99.90
69418;DHT22;56610;48.872;2.400;2023-11-22T13:03:45;15.60;99.60
69418;DHT22;56610;48.872;2.400;2023-11-22T13:06:11;15.30;99.70
69418;DHT22;56610;48.872;2.400;2023-11-22T13:08:36;15.40;99.50
69418;DHT22;56610;48.872;2.400;2023-11-22T13:11:02;15.30;99.10
69418;DHT22;56610;48.872;2.400;2023-11-22T13:13:28;15.10;99.70
69418;DHT22;56610;48.872;2.400;2023-11-22T13:15:55;14.90;99.30
69418;DHT22;56610;48.872;2.400;2023-11-22T13:18:20;14.70;99.40
69418;DHT22;56610;48.872;2.400;2023-11-22T13:20:46;14.70;99.90
69418;DHT22;56610;48.872;2.400;2023-11-22T13:23:12;14.60;99.90
69418;DHT22;56610;48.872;2.400;2023-11-22T13:25:39;14.50;99.90
69418;DHT22;56610;48.872;2.400;2023-11-22T13:28:05;14.40;99.70
69418;DHT22;56610;48.872;2.400;2023-11-22T13:30:31;14.40;99.50
69418;DHT22;56610;48.872;2.400;2023-11-22T13:32:57;14.30;99.50
69418;DHT22;56610;48.872;2.400;2023-11-22T13:35:23;14.10;99.60
69418;DHT22;56610;48.872;2.400;2023-11-22T13:37:49;14.00;99.90
69418;DHT22;56610;48.872;2.400;2023-11-22T13:40:19;13.90;99.80
69418;DHT22;56610;48.872;2.400;2023-11-22T13:42:48;13.80;99.90
69418;DHT22;56610;48.872;2.400;2023-11-22T13:45:15;13.70;99.90
69418;DHT22;56610;48.872;2.400;2023-11-22T13:47:43;13.50;99.90
69418;DHT22;56610;48.872;2.400;2023-11-22T13:50:10;13.40;99.90
69418;DHT22;56610;48.872;2.400;2023-11-22T13:52:35;13.30;99.90
69418;DHT22;56610;48.872;2.400;2023-11-22T13:55:01;13.20;99.90
69418;DHT22;56610;48.872;2.400;2023-11-22T13:57:30;13.10;99.90
69418;DHT22;56610;48.872;2.400;2023-11-22T13:59:56;13.10;99.90
69418;DHT22;56610;48.872;2.400;2023-11-22T14:02:22;12.90;99.90
69418;DHT22;56610;48.872;2.400;2023-11-22T14:04:47;13.00;99.90
69418;DHT22;56610;48.872;2.400;2023-11-22T14:07:13;13.00;99.90
69418;DHT22;56610;48.872;2.400;2023-11-22T14:09:38;13.00;99.90
69418;DHT22;56610;48.872;2.400;2023-11-22T14:12:04;13.10;99.90
69418;DHT22;56610;48.872;2.400;2023-11-22T14:14:29;13.20;99.90
69418;DHT22;56610;48.872;2.400;2023-11-22T14:16:55;13.20;99.90
69418;DHT22;56610;48.872;2.400;2023-11-22T14:19:20;13.30;99.90
69418;DHT22;56610;48.872;2.400;2023-11-22T14:21:46;13.30;99.90
69418;DHT22;56610;48.872;2.400;2023-11-22T14:24:12;13.40;99.90
69418;DHT22;56610;48.872;2.400;2023-11-22T14:26:37;13.40;99.90
69418;DHT22;56610;48.872;2.400;2023-11-22T14:29:03;13.40;99.90
69418;DHT22;56610;48.872;2.400;2023-11-22T14:31:29;13.40;99.90
69418;DHT22;56610;48.872;2.400;2023-11-22T14:33:54;13.50;99.90
69418;DHT22;56610;48.872;2.400;2023-11-22T14:36:22;13.50;99.90
69418;DHT22;56610;48.872;2.400;2023-11-22T14:38:48;13.60;99.90
69418;DHT22;56610;48.872;2.400;2023-11-22T14:41:20;13.70;99.90
69418;DHT22;56610;48.872;2.400;2023-11-22T14:43:45;13.70;99.90
69418;DHT22;56610;48.872;2.400;2023-11-22T14:46:11;13.70;99.90
69418;DHT22;56610;48.872;2.400;2023-11-22T14:48:36;13.70;99.90
69418;DHT22;56610;48.872;2.400;2023-11-22T14:51:03;13.60;99.90
69418;DHT22;56610;48.872;2.400;2023-11-22T14:53:28;13.50;99.90
69418;DHT22;56610;48.872;2.400;2023-11-22T14:55:54;13.50;99.90
69418;DHT22;56610;48.872;2.400;2023-11-22T14:58:19;13.50;99.90
69418;DHT22;56610;48.872;2.400;2023-11-22T15:00:44;13.60;99.90
69418;DHT22;56610;48.872;2.400;2023-11-22T15:03:10;13.60;99.90
69418;DHT22;56610;48.872;2.400;2023-11-22T15:05:36;13.60;99.90
69418;DHT22;56610;48.872;2.400;2023-11-22T15:08:01;13.60;99.90
69418;DHT22;56610;48.872;2.400;2023-11-22T15:10:27;13.60;99.90
69418;DHT22;56610;48.872;2.400;2023-11-22T15:12:52;13.50;99.90
69418;DHT22;56610;48.872;2.400;2023-11-22T15:15:19;13.50;99.90
69418;DHT22;56610;48.872;2.400;2023-11-22T15:17:44;13.60;99.90
69418;DHT22;56610;48.872;2.400;2023-11-22T15:20:10;13.40;99.90
69418;DHT22;56610;48.872;2.400;2023-11-22T15:22:38;13.50;99.90
69418;DHT22;56610;48.872;2.400;2023-11-22T15:25:04;13.60;99.90
69418;DHT22;56610;48.872;2.400;2023-11-22T15:27:30;13.70;99.90
69418;DHT22;56610;48.872;2.400;2023-11-22T15:29:56;13.70;99.90
69418;DHT22;56610;48.872;2.400;2023-11-22T15:32:22;13.80;99.90